createdAt,value
2022-11-16T00:04:12.100Z,100.00
2022-11-16T00:09:24.296Z,100.00
2022-11-16T00:14:30.272Z,100.00
2022-11-16T00:19:33.277Z,100.00
2022-11-16T00:24:36.283Z,100.00
2022-11-16T00:29:39.187Z,100.00
2022-11-16T00:34:42.192Z,100.00
2022-11-16T00:39:45.201Z,100.00
2022-11-16T00:44:48.205Z,100.00
2022-11-16T00:49:51.930Z,100.00
2022-11-16T00:54:55.042Z,100.00
2022-11-16T00:59:57.940Z,100.00
2022-11-16T01:05:00.951Z,100.00
2022-11-16T01:10:06.927Z,100.00
2022-11-16T01:15:11.239Z,100.00
2022-11-16T01:20:18.159Z,100.00
2022-11-16T01:25:21.502Z,100.00
2022-11-16T01:30:24.489Z,100.00
2022-11-16T01:35:27.490Z,100.00
2022-11-16T01:40:30.494Z,100.00
2022-11-16T01:45:44.054Z,100.00
2022-11-16T01:50:49.309Z,100.00
2022-11-16T01:55:52.959Z,100.00
2022-11-16T02:00:56.005Z,100.00
2022-11-16T02:06:11.249Z,100.00
2022-11-16T02:11:35.426Z,100.00
2022-11-16T02:16:56.454Z,100.00
2022-11-16T02:22:14.411Z,100.00
2022-11-16T02:27:39.538Z,100.00
2022-11-16T02:32:52.247Z,100.00
2022-11-16T02:38:19.034Z,100.00
2022-11-16T02:43:31.157Z,100.00
2022-11-16T02:48:38.873Z,100.00
2022-11-16T02:53:57.954Z,100.00
2022-11-16T02:59:00.859Z,99.88
2022-11-16T03:04:14.925Z,98.21
2022-11-16T03:09:24.587Z,97.03
2022-11-16T03:14:39.892Z,96.23
2022-11-16T03:19:49.184Z,96.28
2022-11-16T03:24:52.827Z,95.73
2022-11-16T03:30:23.534Z,95.00
2022-11-16T03:35:39.015Z,95.18
2022-11-16T03:40:45.675Z,94.84
2022-11-16T03:45:49.330Z,94.43
2022-11-16T03:50:52.857Z,94.01
2022-11-16T03:55:55.859Z,93.09
2022-11-16T04:00:58.831Z,92.43
2022-11-16T04:06:20.301Z,92.47
2022-11-16T04:11:42.253Z,91.95
2022-11-16T04:17:03.585Z,91.14
2022-11-16T04:22:33.425Z,90.96
2022-11-16T04:27:55.270Z,90.61
2022-11-16T04:33:16.815Z,91.04
2022-11-16T04:38:19.718Z,91.58
2022-11-16T04:43:22.621Z,91.96
2022-11-16T04:48:25.628Z,92.11
2022-11-16T04:53:28.532Z,92.41
2022-11-16T04:58:31.620Z,92.02
2022-11-16T05:03:34.855Z,91.52
2022-11-16T05:08:37.758Z,91.12
2022-11-16T05:13:40.663Z,91.05
2022-11-16T05:18:43.565Z,90.81
2022-11-16T05:24:05.004Z,91.04
2022-11-16T05:29:07.912Z,90.93
2022-11-16T05:34:11.017Z,91.49
2022-11-16T05:39:14.228Z,92.12
2022-11-16T05:44:18.087Z,92.68
2022-11-16T05:49:21.267Z,93.26
2022-11-16T05:54:26.310Z,93.97
2022-11-16T05:59:30.355Z,94.21
2022-11-16T06:04:33.832Z,94.71
2022-11-16T06:09:36.775Z,95.12
2022-11-16T06:14:39.678Z,95.44
2022-11-16T06:19:42.688Z,95.58
2022-11-16T06:24:45.591Z,95.28
2022-11-16T06:29:48.495Z,94.78
2022-11-16T06:34:51.729Z,94.68
2022-11-16T06:39:54.720Z,94.60
2022-11-16T06:44:57.618Z,94.61
2022-11-16T06:50:00.998Z,94.81
2022-11-16T06:55:03.942Z,94.66
2022-11-16T07:00:08.782Z,94.79
2022-11-16T07:05:11.794Z,94.87
2022-11-16T07:10:15.113Z,94.88
2022-11-16T07:15:18.417Z,94.84
2022-11-16T07:20:21.430Z,94.06
2022-11-16T07:25:24.433Z,92.93
2022-11-16T07:30:27.817Z,92.64
2022-11-16T07:35:31.492Z,92.28
2022-11-16T07:40:35.092Z,92.18
2022-11-16T07:45:38.022Z,91.90
2022-11-16T07:50:40.901Z,90.92
2022-11-16T07:55:43.805Z,89.87
2022-11-16T08:00:47.119Z,88.91
2022-11-16T08:05:59.648Z,86.87
2022-11-16T08:11:07.672Z,85.58
2022-11-16T08:16:13.454Z,84.31
2022-11-16T08:21:18.400Z,83.63
2022-11-16T08:26:22.589Z,84.31
2022-11-16T08:31:28.198Z,84.11
2022-11-16T08:36:31.104Z,84.23
2022-11-16T08:41:36.576Z,83.70
2022-11-16T08:46:40.108Z,84.05
2022-11-16T08:51:42.991Z,83.74
2022-11-16T08:56:45.895Z,83.70
2022-11-16T09:01:50.345Z,83.66
2022-11-16T09:06:53.567Z,82.63
2022-11-16T09:11:56.451Z,82.69
2022-11-16T09:16:59.467Z,83.04
2022-11-16T09:22:02.366Z,82.93
2022-11-16T09:27:06.904Z,82.90
2022-11-16T09:32:09.810Z,82.52
2022-11-16T09:37:12.814Z,82.35
2022-11-16T09:42:21.658Z,82.52
2022-11-16T09:47:36.850Z,82.38
2022-11-16T09:52:45.695Z,81.78
2022-11-16T09:57:50.647Z,81.35
2022-11-16T10:03:04.204Z,81.73
2022-11-16T10:08:17.652Z,81.75
2022-11-16T10:13:46.771Z,81.40
2022-11-16T10:19:03.940Z,80.59
2022-11-16T10:24:09.919Z,80.14
2022-11-16T10:29:37.878Z,80.45
2022-11-16T10:34:54.103Z,79.65
2022-11-16T10:39:57.522Z,79.57
2022-11-16T10:45:07.027Z,79.25
2022-11-16T10:50:25.954Z,79.12
2022-11-16T10:55:29.832Z,78.32
2022-11-16T11:00:36.830Z,78.67
2022-11-16T11:05:53.710Z,78.92
2022-11-16T11:11:25.187Z,78.54
2022-11-16T11:16:28.088Z,78.07
2022-11-16T11:21:31.198Z,78.08
2022-11-16T11:26:40.778Z,78.59
2022-11-16T11:31:47.351Z,78.93
2022-11-16T11:36:57.744Z,79.12
2022-11-16T11:42:12.826Z,79.28
2022-11-16T11:53:08.396Z,79.72
2022-11-16T11:58:19.786Z,79.86
2022-11-16T12:03:31.672Z,80.00
2022-11-16T12:08:59.398Z,80.60
2022-11-16T12:14:17.769Z,80.34
2022-11-16T12:19:35.626Z,80.56
2022-11-16T12:24:50.710Z,81.02
2022-11-16T12:30:09.924Z,80.77
2022-11-16T12:35:37.376Z,80.81
2022-11-16T12:41:09.262Z,80.58
2022-11-16T12:46:32.962Z,80.44
2022-11-16T12:52:01.664Z,80.42
2022-11-16T12:57:10.816Z,80.79
2022-11-16T13:03:00.821Z,80.87
2022-11-16T13:08:27.587Z,80.74
2022-11-16T13:13:38.613Z,80.53
2022-11-16T13:18:43.066Z,80.72
2022-11-16T13:24:12.654Z,80.79
2022-11-16T13:29:34.399Z,81.01
2022-11-16T13:34:40.480Z,81.00
2022-11-16T13:39:58.742Z,80.64
2022-11-16T13:45:22.602Z,80.78
2022-11-16T13:50:37.850Z,80.68
2022-11-16T13:55:44.422Z,80.58
2022-11-16T14:00:59.079Z,80.70
2022-11-16T14:06:01.993Z,81.26
2022-11-16T14:11:26.005Z,81.52
2022-11-16T14:16:29.422Z,81.56
2022-11-16T14:21:47.992Z,81.68
2022-11-16T14:27:30.253Z,81.16
2022-11-16T14:32:45.925Z,80.86
2022-11-16T14:37:58.789Z,81.36
2022-11-16T14:43:17.161Z,81.56
2022-11-16T14:48:22.743Z,81.62
2022-11-16T14:53:28.024Z,81.75
2022-11-16T14:58:31.066Z,80.96
2022-11-16T15:03:57.805Z,80.66
2022-11-16T15:09:04.555Z,80.37
2022-11-16T15:14:07.632Z,80.86
2022-11-16T15:19:12.698Z,81.00
2022-11-16T15:24:41.903Z,81.36
2022-11-16T15:29:45.119Z,80.96
2022-11-16T15:34:51.814Z,81.16
2022-11-16T15:39:56.448Z,80.88
2022-11-16T15:45:15.527Z,80.53
2022-11-16T15:50:19.976Z,79.77
2022-11-16T15:55:24.461Z,79.66
2022-11-16T16:00:29.081Z,80.28
2022-11-16T16:05:37.191Z,80.43
2022-11-16T16:10:40.096Z,79.80
2022-11-16T16:15:42.921Z,79.61
2022-11-16T16:20:49.080Z,79.80
2022-11-16T16:25:51.929Z,79.78
2022-11-16T16:30:55.092Z,79.69
2022-11-16T16:35:58.004Z,79.63
2022-11-16T16:41:03.261Z,79.81
2022-11-16T16:46:07.488Z,79.50
2022-11-16T16:51:12.834Z,79.53
2022-11-16T16:56:17.878Z,79.61
2022-11-16T17:01:21.378Z,79.78
2022-11-16T17:06:24.817Z,79.83
2022-11-16T17:11:28.979Z,80.07
2022-11-16T17:16:32.980Z,79.82
2022-11-16T17:21:36.230Z,79.80
2022-11-16T17:26:40.773Z,79.92
2022-11-16T17:31:45.104Z,80.48
2022-11-16T17:36:48.000Z,80.78
2022-11-16T17:41:51.516Z,80.86
2022-11-16T17:46:54.938Z,80.76
2022-11-16T17:51:57.846Z,80.91
2022-11-16T17:57:00.744Z,80.80
2022-11-16T18:02:03.960Z,80.81
2022-11-16T18:07:07.029Z,81.04
2022-11-16T18:12:10.073Z,81.21
2022-11-16T18:17:13.489Z,81.29
2022-11-16T18:22:16.804Z,81.17
2022-11-16T18:27:19.707Z,81.20
2022-11-16T18:32:22.612Z,80.95
2022-11-16T18:37:25.513Z,80.57
2022-11-16T18:42:28.477Z,80.62
2022-11-16T18:47:31.632Z,80.30
2022-11-16T18:52:34.534Z,80.52
2022-11-16T18:57:37.439Z,80.36
2022-11-16T19:02:40.447Z,80.30
2022-11-16T19:07:43.350Z,80.04
2022-11-16T19:12:46.358Z,79.79
2022-11-16T19:18:14.724Z,79.82
2022-11-16T19:23:12.234Z,79.79
2022-11-16T19:28:15.240Z,79.81
2022-11-16T19:33:18.144Z,79.70
2022-11-16T19:38:21.052Z,79.61
2022-11-16T19:43:23.954Z,79.50
2022-11-16T19:48:27.572Z,79.32
2022-11-16T19:53:30.496Z,79.38
2022-11-16T19:58:38.524Z,79.09
2022-11-16T20:03:42.432Z,79.02
2022-11-16T20:08:50.761Z,78.98
2022-11-16T20:13:56.389Z,79.13
2022-11-16T20:18:59.446Z,78.77
2022-11-16T20:24:06.841Z,78.92
2022-11-16T20:29:15.179Z,78.43
2022-11-16T20:34:20.447Z,78.63
2022-11-16T20:39:23.445Z,78.92
2022-11-16T20:44:26.349Z,78.60
2022-11-16T20:49:29.358Z,78.53
2022-11-16T20:54:32.364Z,78.58
2022-11-16T20:59:35.368Z,78.19
2022-11-16T21:04:38.272Z,78.30
2022-11-16T21:09:59.608Z,78.29
2022-11-16T21:15:02.516Z,78.57
2022-11-16T21:20:26.485Z,78.54
2022-11-16T21:25:29.007Z,78.45
2022-11-16T21:30:32.323Z,78.14
2022-11-16T21:35:35.225Z,77.56
2022-11-16T21:40:38.761Z,77.44
2022-11-16T21:45:43.388Z,77.91
2022-11-16T21:50:46.497Z,77.80
2022-11-16T21:55:50.117Z,77.86
2022-11-16T22:01:01.575Z,77.60
2022-11-16T22:06:25.625Z,77.81
2022-11-16T22:17:08.611Z,78.00
2022-11-16T22:22:11.617Z,77.85
2022-11-16T22:27:16.570Z,78.09
2022-11-16T22:32:19.678Z,78.07
2022-11-16T22:37:23.298Z,78.04
2022-11-16T22:42:26.207Z,78.02
2022-11-16T22:47:29.123Z,77.94
2022-11-16T22:52:32.013Z,78.09
2022-11-16T22:57:34.925Z,77.84
2022-11-16T23:02:38.538Z,77.74
2022-11-16T23:07:44.211Z,77.89
2022-11-16T23:13:05.954Z,77.65
2022-11-16T23:18:08.836Z,77.63
2022-11-16T23:23:36.909Z,77.80
2022-11-16T23:28:40.171Z,77.92
2022-11-16T23:33:46.046Z,77.83
2022-11-16T23:38:49.046Z,77.53
2022-11-16T23:43:58.714Z,77.41
2022-11-16T23:49:02.329Z,77.39
2022-11-16T23:54:06.156Z,77.15
2022-11-16T23:59:09.062Z,77.40
